createdAt,value
2022-07-26T00:06:01.410Z,24.70
2022-07-26T00:08:29.303Z,24.70
2022-07-26T00:10:57.343Z,24.70
2022-07-26T00:13:25.441Z,24.70
2022-07-26T00:15:58.447Z,24.70
2022-07-26T00:18:26.419Z,24.70
2022-07-26T00:20:55.741Z,24.70
2022-07-26T00:23:23.716Z,24.70
2022-07-26T00:25:51.634Z,24.70
2022-07-26T00:28:19.517Z,24.70
2022-07-26T00:30:47.831Z,24.70
2022-07-26T00:33:15.824Z,24.70
2022-07-26T00:35:43.831Z,24.70
2022-07-26T00:38:13.061Z,24.60
2022-07-26T00:40:40.921Z,24.60
2022-07-26T00:43:08.845Z,24.50
2022-07-26T00:45:36.845Z,24.50
2022-07-26T00:48:05.329Z,24.50
2022-07-26T00:50:33.495Z,24.50
2022-07-26T00:53:02.585Z,24.40
2022-07-26T00:55:31.874Z,24.40
2022-07-26T00:58:01.143Z,24.30
2022-07-26T01:00:29.710Z,24.30
2022-07-26T01:02:58.504Z,24.30
2022-07-26T01:05:26.637Z,24.30
2022-07-26T01:07:56.104Z,24.30
2022-07-26T01:10:24.005Z,24.30
2022-07-26T01:12:53.143Z,24.30
2022-07-26T01:15:21.822Z,24.30
2022-07-26T01:17:49.770Z,24.40
2022-07-26T01:20:17.587Z,24.40
2022-07-26T01:22:46.799Z,24.30
2022-07-26T01:25:15.008Z,24.30
2022-07-26T01:27:43.573Z,24.30
2022-07-26T01:30:13.613Z,24.30
2022-07-26T01:32:41.516Z,24.20
2022-07-26T01:35:10.597Z,24.20
2022-07-26T01:37:38.482Z,24.20
2022-07-26T01:40:09.338Z,24.20
2022-07-26T01:42:40.628Z,24.20
2022-07-26T01:45:09.474Z,24.20
2022-07-26T01:47:37.779Z,24.10
2022-07-26T01:50:07.856Z,24.10
2022-07-26T01:52:35.857Z,24.10
2022-07-26T01:55:03.840Z,24.10
2022-07-26T01:57:33.111Z,24.10
2022-07-26T02:00:00.920Z,24.10
2022-07-26T02:02:29.684Z,24.10
2022-07-26T02:05:03.898Z,24.10
2022-07-26T02:07:33.345Z,24.10
2022-07-26T02:10:01.482Z,26.50
2022-07-26T02:12:29.780Z,24.00
2022-07-26T02:14:59.692Z,24.00
2022-07-26T02:17:27.607Z,24.00
2022-07-26T02:19:55.441Z,23.90
2022-07-26T02:22:23.411Z,23.90
2022-07-26T02:24:51.913Z,24.00
2022-07-26T02:27:19.775Z,23.90
2022-07-26T02:29:47.777Z,23.90
2022-07-26T02:32:16.951Z,23.90
2022-07-26T02:34:44.843Z,23.90
2022-07-26T02:37:12.681Z,23.90
2022-07-26T02:39:40.486Z,23.90
2022-07-26T02:42:08.541Z,23.90
2022-07-26T02:44:36.671Z,23.80
2022-07-26T02:47:04.572Z,23.70
2022-07-26T02:49:33.838Z,23.70
2022-07-26T02:52:05.342Z,23.70
2022-07-26T02:54:33.115Z,23.70
2022-07-26T02:57:00.988Z,23.70
2022-07-26T02:59:28.829Z,23.60
2022-07-26T03:01:56.753Z,23.60
2022-07-26T03:04:24.685Z,23.60
2022-07-26T03:06:54.123Z,23.60
2022-07-26T03:09:21.896Z,23.60
2022-07-26T03:11:49.786Z,23.60
2022-07-26T03:14:17.602Z,23.60
2022-07-26T03:16:45.631Z,23.50
2022-07-26T03:19:13.441Z,23.50
2022-07-26T03:21:41.319Z,23.50
2022-07-26T03:24:11.099Z,23.60
2022-07-26T03:26:39.205Z,23.50
2022-07-26T03:29:07.445Z,23.60
2022-07-26T03:31:36.510Z,23.50
2022-07-26T03:34:04.481Z,23.50
2022-07-26T03:36:32.440Z,23.50
2022-07-26T03:39:00.443Z,23.40
2022-07-26T03:41:31.559Z,23.40
2022-07-26T03:46:27.737Z,23.40
2022-07-26T03:48:55.994Z,23.30
2022-07-26T03:51:24.061Z,23.30
2022-07-26T03:53:52.453Z,23.30
2022-07-26T03:56:35.369Z,23.30
2022-07-26T03:59:08.141Z,23.20
2022-07-26T04:01:36.973Z,23.10
2022-07-26T04:04:05.361Z,23.10
2022-07-26T04:06:37.611Z,23.10
2022-07-26T04:09:06.142Z,23.10
2022-07-26T04:14:04.597Z,23.10
2022-07-26T04:16:32.820Z,23.10
2022-07-26T04:19:00.802Z,23.10
2022-07-26T04:21:28.631Z,23.00
2022-07-26T04:23:56.528Z,23.00
2022-07-26T04:26:24.563Z,23.00
2022-07-26T04:28:52.370Z,23.00
2022-07-26T04:31:21.933Z,23.00
2022-07-26T04:33:50.038Z,22.90
2022-07-26T04:36:17.903Z,23.00
2022-07-26T04:41:14.618Z,23.00
2022-07-26T04:43:42.477Z,22.90
2022-07-26T04:46:10.383Z,23.00
2022-07-26T04:48:39.872Z,23.00
2022-07-26T04:51:07.937Z,23.00
2022-07-26T04:53:35.746Z,23.00
2022-07-26T04:56:03.636Z,22.90
2022-07-26T04:58:31.446Z,22.70
2022-07-26T05:01:09.938Z,22.80
2022-07-26T05:03:40.259Z,22.70
2022-07-26T05:06:08.412Z,22.60
2022-07-26T05:08:36.310Z,22.50
2022-07-26T05:13:32.344Z,22.40
2022-07-26T05:16:00.925Z,22.30
2022-07-26T05:18:31.934Z,22.40
2022-07-26T05:21:14.964Z,22.40
2022-07-26T05:23:42.843Z,22.40
2022-07-26T05:28:41.105Z,22.40
2022-07-26T05:31:09.123Z,22.40
2022-07-26T05:33:37.073Z,22.50
2022-07-26T05:36:05.590Z,22.50
2022-07-26T05:38:34.841Z,22.50
2022-07-26T05:41:02.979Z,22.50
2022-07-26T05:43:41.387Z,22.50
2022-07-26T05:46:11.326Z,22.50
2022-07-26T05:48:39.820Z,22.30
2022-07-26T05:53:37.454Z,22.00
2022-07-26T05:56:06.243Z,21.00
2022-07-26T05:58:34.219Z,22.00
2022-07-26T06:01:02.118Z,22.00
2022-07-26T06:03:31.933Z,22.00
2022-07-26T06:06:00.361Z,22.10
2022-07-26T06:08:28.776Z,22.20
2022-07-26T06:11:00.818Z,22.20
2022-07-26T06:13:28.668Z,22.30
2022-07-26T06:15:56.590Z,22.30
2022-07-26T06:18:24.696Z,22.30
2022-07-26T06:20:52.499Z,22.30
2022-07-26T06:23:34.336Z,22.50
2022-07-26T06:26:04.941Z,22.60
2022-07-26T06:28:33.747Z,22.40
2022-07-26T06:31:01.747Z,22.40
2022-07-26T06:35:57.779Z,22.20
2022-07-26T06:38:25.687Z,22.20
2022-07-26T06:40:53.701Z,22.10
2022-07-26T06:43:23.070Z,22.10
2022-07-26T06:45:51.153Z,22.20
2022-07-26T06:48:19.236Z,22.20
2022-07-26T06:50:47.396Z,22.10
2022-07-26T06:53:15.199Z,22.10
2022-07-26T06:55:44.307Z,22.10
2022-07-26T06:58:13.781Z,21.90
2022-07-26T07:00:44.055Z,22.50
2022-07-26T07:03:11.997Z,21.90
2022-07-26T07:05:39.949Z,21.90
2022-07-26T07:08:08.176Z,22.00
2022-07-26T07:10:38.221Z,21.90
2022-07-26T07:13:06.207Z,22.10
2022-07-26T07:15:34.516Z,22.20
2022-07-26T07:18:03.803Z,22.30
2022-07-26T07:20:31.671Z,22.40
2022-07-26T07:22:59.537Z,22.30
2022-07-26T07:25:30.652Z,22.20
2022-07-26T07:27:58.928Z,22.00
2022-07-26T07:30:28.043Z,22.00
2022-07-26T07:32:56.738Z,22.00
2022-07-26T07:35:32.103Z,22.30
2022-07-26T07:38:01.185Z,22.30
2022-07-26T07:40:30.198Z,22.60
2022-07-26T07:42:58.593Z,22.70
2022-07-26T07:45:26.466Z,22.70
2022-07-26T07:47:54.901Z,22.60
2022-07-26T07:50:23.028Z,22.60
2022-07-26T07:52:58.018Z,22.90
2022-07-26T07:55:46.269Z,23.00
2022-07-26T07:58:15.779Z,23.00
2022-07-26T08:00:45.334Z,23.10
2022-07-26T08:03:18.483Z,23.10
2022-07-26T08:05:50.021Z,23.10
2022-07-26T08:08:22.154Z,23.10
2022-07-26T08:10:52.759Z,23.10
2022-07-26T08:13:22.047Z,23.20
2022-07-26T08:15:50.746Z,23.30
2022-07-26T08:18:22.227Z,23.30
2022-07-26T08:20:51.286Z,23.20
2022-07-26T08:23:21.673Z,23.20
2022-07-26T08:25:56.989Z,23.30
2022-07-26T08:31:15.400Z,23.40
2022-07-26T08:33:46.140Z,23.60
2022-07-26T08:36:16.108Z,23.60
2022-07-26T08:38:47.469Z,23.60
2022-07-26T08:41:17.669Z,23.50
2022-07-26T08:43:53.238Z,23.50
2022-07-26T08:46:27.828Z,23.50
2022-07-26T08:48:56.568Z,23.70
2022-07-26T08:51:25.865Z,24.00
2022-07-26T08:54:04.207Z,24.00
2022-07-26T08:56:33.857Z,23.90
2022-07-26T08:59:05.322Z,23.70
2022-07-26T09:01:33.409Z,23.80
2022-07-26T09:04:31.136Z,24.00
2022-07-26T09:07:03.023Z,24.00
2022-07-26T09:09:33.386Z,24.30
2022-07-26T09:12:15.951Z,24.30
2022-07-26T09:14:46.604Z,24.40
2022-07-26T09:17:15.986Z,24.30
2022-07-26T09:19:44.180Z,24.40
2022-07-26T09:22:14.028Z,24.50
2022-07-26T09:24:44.965Z,24.50
2022-07-26T09:27:14.963Z,24.60
2022-07-26T09:29:48.150Z,24.40
2022-07-26T09:32:18.533Z,24.30
2022-07-26T09:34:53.009Z,24.30
2022-07-26T09:37:34.760Z,24.30
2022-07-26T09:40:06.742Z,24.40
2022-07-26T09:42:34.634Z,24.60
2022-07-26T09:47:37.899Z,24.70
2022-07-26T09:50:21.795Z,24.70
2022-07-26T09:53:00.367Z,24.80
2022-07-26T09:55:39.279Z,24.80
2022-07-26T09:58:13.993Z,24.90
2022-07-26T10:00:42.402Z,24.90
2022-07-26T10:03:10.498Z,24.90
2022-07-26T10:05:38.462Z,24.90
2022-07-26T10:08:08.047Z,24.90
2022-07-26T10:10:44.545Z,24.90
2022-07-26T10:13:12.919Z,25.00
2022-07-26T10:15:43.284Z,25.00
2022-07-26T10:18:13.442Z,25.10
2022-07-26T10:20:50.571Z,25.20
2022-07-26T10:23:42.879Z,25.20
2022-07-26T10:26:14.922Z,25.30
2022-07-26T10:28:43.270Z,25.10
2022-07-26T10:31:31.325Z,25.00
2022-07-26T10:34:01.554Z,24.90
2022-07-26T10:36:32.522Z,24.90
2022-07-26T10:39:06.524Z,24.90
2022-07-26T10:41:38.669Z,25.30
2022-07-26T10:44:17.996Z,25.30
2022-07-26T10:47:15.695Z,25.50
2022-07-26T10:49:54.200Z,25.80
2022-07-26T10:52:24.720Z,26.00
2022-07-26T10:55:21.573Z,26.20
2022-07-26T10:57:51.338Z,26.30
2022-07-26T11:00:24.926Z,26.40
2022-07-26T11:02:58.375Z,26.50
2022-07-26T11:05:31.177Z,26.50
2022-07-26T11:08:08.186Z,26.50
2022-07-26T11:10:39.130Z,26.50
2022-07-26T11:13:19.268Z,26.40
2022-07-26T11:15:49.679Z,26.30
2022-07-26T11:18:25.765Z,26.10
2022-07-26T11:20:55.883Z,26.00
2022-07-26T11:23:26.118Z,26.10
2022-07-26T11:26:16.382Z,26.20
2022-07-26T11:28:56.010Z,26.50
2022-07-26T11:31:50.652Z,26.50
2022-07-26T11:34:19.732Z,26.70
2022-07-26T11:36:48.288Z,26.70
2022-07-26T11:39:21.950Z,26.80
2022-07-26T11:41:50.413Z,27.10
2022-07-26T11:44:21.424Z,27.10
2022-07-26T11:46:50.586Z,27.10
2022-07-26T11:49:20.464Z,27.00
2022-07-26T11:51:53.345Z,27.00
2022-07-26T11:54:21.589Z,27.00
2022-07-26T11:56:54.354Z,26.90
2022-07-26T11:59:25.663Z,26.80
2022-07-26T12:01:54.588Z,26.70
2022-07-26T12:04:25.231Z,26.60
2022-07-26T12:06:55.033Z,26.60
2022-07-26T12:09:31.168Z,26.30
2022-07-26T12:11:59.483Z,26.30
2022-07-26T12:14:30.163Z,26.30
2022-07-26T12:16:58.940Z,26.40
2022-07-26T12:19:29.829Z,26.40
2022-07-26T12:24:38.647Z,26.50
2022-07-26T12:27:12.052Z,26.50
2022-07-26T12:29:43.081Z,26.60
2022-07-26T12:32:14.884Z,26.70
2022-07-26T12:34:55.104Z,26.90
2022-07-26T12:37:30.330Z,26.90
2022-07-26T12:40:10.767Z,27.10
2022-07-26T12:42:40.479Z,27.30
2022-07-26T12:45:12.130Z,27.30
2022-07-26T12:47:41.936Z,27.40
2022-07-26T12:50:12.664Z,27.40
2022-07-26T12:52:41.511Z,27.60
2022-07-26T12:55:11.564Z,27.70
2022-07-26T12:57:41.453Z,27.70
2022-07-26T13:00:19.129Z,27.60
2022-07-26T13:02:47.233Z,27.50
2022-07-26T13:05:16.108Z,27.50
2022-07-26T13:07:44.181Z,27.30
2022-07-26T13:15:37.267Z,27.30
2022-07-26T13:20:34.340Z,27.50
2022-07-26T13:23:02.901Z,27.60
2022-07-26T13:25:35.075Z,27.70
2022-07-26T13:28:06.782Z,27.70
2022-07-26T13:30:37.439Z,27.50
2022-07-26T13:33:05.555Z,27.50
2022-07-26T13:35:33.538Z,27.50
2022-07-26T13:38:01.536Z,27.50
2022-07-26T13:40:31.716Z,27.60
2022-07-26T13:43:00.142Z,27.60
2022-07-26T13:45:28.750Z,27.70
2022-07-26T13:47:59.639Z,27.80
2022-07-26T13:50:28.286Z,27.90
2022-07-26T13:52:57.088Z,27.90
2022-07-26T13:55:25.555Z,28.00
2022-07-26T14:00:27.065Z,28.30
2022-07-26T14:02:55.734Z,28.30
2022-07-26T14:05:25.446Z,28.30
2022-07-26T14:10:22.989Z,28.40
2022-07-26T14:12:51.449Z,28.50
2022-07-26T14:17:52.026Z,28.50
2022-07-26T14:20:20.854Z,28.50
2022-07-26T14:22:53.352Z,28.60
2022-07-26T14:25:21.921Z,28.60
2022-07-26T14:27:50.351Z,28.50
2022-07-26T14:30:18.253Z,28.40
2022-07-26T14:32:46.965Z,28.20
2022-07-26T14:35:16.539Z,28.20
2022-07-26T14:37:45.802Z,28.20
2022-07-26T14:40:17.084Z,28.30
2022-07-26T14:42:45.977Z,28.40
2022-07-26T14:45:14.727Z,28.50
2022-07-26T14:47:42.894Z,28.50
2022-07-26T14:50:12.875Z,28.50
2022-07-26T14:52:42.004Z,28.60
2022-07-26T14:55:11.053Z,28.30
2022-07-26T14:57:41.046Z,28.30
2022-07-26T15:00:12.546Z,28.70
2022-07-26T15:02:41.447Z,28.80
2022-07-26T15:05:10.488Z,28.80
2022-07-26T15:07:38.853Z,28.80
2022-07-26T15:10:08.470Z,28.90
2022-07-26T15:12:36.409Z,29.00
2022-07-26T15:15:07.665Z,29.10
2022-07-26T15:17:35.819Z,29.20
2022-07-26T15:20:04.937Z,29.40
2022-07-26T15:22:32.870Z,29.60
2022-07-26T15:25:03.006Z,29.60
2022-07-26T15:27:31.090Z,29.60
2022-07-26T15:30:04.406Z,29.50
2022-07-26T15:32:36.899Z,29.50
2022-07-26T15:35:05.365Z,29.40
2022-07-26T15:37:33.210Z,29.00
2022-07-26T15:42:32.018Z,29.30
2022-07-26T15:45:07.398Z,29.50
2022-07-26T15:48:00.964Z,29.50
2022-07-26T15:50:27.238Z,29.60
2022-07-26T15:52:55.175Z,29.40
2022-07-26T15:55:23.106Z,29.10
2022-07-26T15:57:55.192Z,28.90
2022-07-26T16:00:23.165Z,28.90
2022-07-26T16:02:52.787Z,29.00
2022-07-26T16:05:20.781Z,29.10
2022-07-26T16:07:48.717Z,29.30
2022-07-26T16:10:17.249Z,29.70
2022-07-26T16:12:45.254Z,29.80
2022-07-26T16:15:13.945Z,29.80
2022-07-26T16:17:41.761Z,29.80
2022-07-26T16:20:11.748Z,30.10
2022-07-26T16:22:41.723Z,30.30
2022-07-26T16:25:12.710Z,30.60
2022-07-26T16:27:40.922Z,30.60
2022-07-26T16:30:09.860Z,30.90
2022-07-26T16:32:37.791Z,31.00
2022-07-26T16:35:06.275Z,31.10
2022-07-26T16:37:35.509Z,31.10
2022-07-26T16:40:03.383Z,30.90
2022-07-26T16:42:31.428Z,30.50
2022-07-26T16:44:59.346Z,30.20
2022-07-26T16:47:27.197Z,30.10
2022-07-26T16:49:55.057Z,30.00
2022-07-26T16:52:23.368Z,30.00
2022-07-26T16:54:52.662Z,30.00
2022-07-26T16:57:20.550Z,30.20
2022-07-26T16:59:48.505Z,30.20
2022-07-26T17:02:16.429Z,30.60
2022-07-26T17:07:25.175Z,30.80
2022-07-26T17:09:56.409Z,30.80
2022-07-26T17:12:24.725Z,30.80
2022-07-26T17:14:55.353Z,30.70
2022-07-26T17:17:23.775Z,30.70
2022-07-26T17:19:51.934Z,30.60
2022-07-26T17:22:19.989Z,30.30
2022-07-26T17:24:48.390Z,30.30
2022-07-26T17:27:18.173Z,30.00
2022-07-26T17:29:46.075Z,29.90
2022-07-26T17:32:13.896Z,29.50
2022-07-26T17:34:42.447Z,29.40
2022-07-26T17:37:10.699Z,28.90
2022-07-26T17:39:52.718Z,28.80
2022-07-26T17:42:23.513Z,29.10
2022-07-26T17:44:51.863Z,29.20
2022-07-26T17:47:29.488Z,29.50
2022-07-26T17:50:14.144Z,29.60
2022-07-26T17:52:47.663Z,29.70
2022-07-26T17:55:15.702Z,29.60
2022-07-26T17:57:45.103Z,29.20
2022-07-26T18:00:14.437Z,28.80
2022-07-26T18:02:42.382Z,28.20
2022-07-26T18:05:11.977Z,28.20
2022-07-26T18:07:40.809Z,27.90
2022-07-26T18:10:11.152Z,27.80
2022-07-26T18:12:39.209Z,27.40
2022-07-26T18:15:09.908Z,27.30
2022-07-26T18:17:38.071Z,27.00
2022-07-26T18:20:07.153Z,26.90
2022-07-26T18:25:03.998Z,26.60
2022-07-26T18:27:31.984Z,26.40
2022-07-26T18:30:00.642Z,26.30
2022-07-26T18:34:58.387Z,26.20
2022-07-26T18:37:26.225Z,26.10
2022-07-26T18:39:57.741Z,26.00
2022-07-26T18:42:26.329Z,25.90
2022-07-26T18:44:54.248Z,25.80
2022-07-26T18:47:22.668Z,25.70
2022-07-26T18:49:54.246Z,25.60
2022-07-26T18:52:28.284Z,25.50
2022-07-26T18:54:58.525Z,25.50
2022-07-26T19:10:40.725Z,25.20
2022-07-26T19:25:47.192Z,25.20
2022-07-26T19:28:15.356Z,25.20
2022-07-26T19:33:19.167Z,25.20
2022-07-26T19:35:48.503Z,25.20
2022-07-26T19:40:45.050Z,25.10
2022-07-26T19:48:10.185Z,25.00
2022-07-26T19:53:07.582Z,25.00
2022-07-26T19:55:38.197Z,25.00
2022-07-26T19:58:06.160Z,24.90
2022-07-26T20:00:34.326Z,24.80
2022-07-26T20:03:02.568Z,24.80
2022-07-26T20:10:32.590Z,24.70
2022-07-26T20:13:00.764Z,24.70
2022-07-26T20:15:28.641Z,24.70
2022-07-26T20:20:24.872Z,24.50
2022-07-26T20:23:00.921Z,24.50
2022-07-26T20:25:28.889Z,24.50
2022-07-26T20:27:58.380Z,24.50
2022-07-26T20:30:27.613Z,24.50
2022-07-26T20:32:56.021Z,24.50
2022-07-26T20:35:26.517Z,24.40
2022-07-26T20:40:23.266Z,24.30
2022-07-26T20:42:52.551Z,24.30
2022-07-26T20:45:26.170Z,24.30
2022-07-26T20:47:55.330Z,24.20
2022-07-26T20:52:54.953Z,24.10
2022-07-26T20:55:22.864Z,24.10
2022-07-26T20:57:50.841Z,24.10
2022-07-26T21:00:20.047Z,24.00
2022-07-26T21:02:49.602Z,24.00
2022-07-26T21:05:17.489Z,24.00
2022-07-26T21:07:56.594Z,23.90
2022-07-26T21:10:27.668Z,23.90
2022-07-26T21:12:57.126Z,23.90
2022-07-26T21:15:25.008Z,23.80
2022-07-26T21:17:54.471Z,23.80
2022-07-26T21:20:22.900Z,23.70
2022-07-26T21:22:50.852Z,23.70
2022-07-26T21:25:18.609Z,23.70
2022-07-26T21:27:46.456Z,23.70
2022-07-26T21:30:14.757Z,23.60
2022-07-26T21:32:42.575Z,23.60
2022-07-26T21:35:11.850Z,23.50
2022-07-26T21:37:42.629Z,23.50
2022-07-26T21:40:13.487Z,23.50
2022-07-26T21:42:41.248Z,23.50
2022-07-26T21:45:09.639Z,23.50
2022-07-26T21:47:37.462Z,23.50
2022-07-26T21:50:05.934Z,23.50
2022-07-26T21:52:35.036Z,23.40
2022-07-26T21:55:02.802Z,23.40
2022-07-26T21:57:30.709Z,23.30
2022-07-26T21:59:58.565Z,23.60
2022-07-26T22:02:26.397Z,23.20
2022-07-26T22:04:54.203Z,23.20
2022-07-26T22:07:22.035Z,23.10
2022-07-26T22:09:51.209Z,23.10
2022-07-26T22:12:19.030Z,23.00
2022-07-26T22:14:46.824Z,23.00
2022-07-26T22:17:14.651Z,23.00
2022-07-26T22:19:42.435Z,23.00
2022-07-26T22:22:10.298Z,22.90
2022-07-26T22:24:38.127Z,22.90
2022-07-26T22:27:07.295Z,22.80
2022-07-26T22:29:38.710Z,22.80
2022-07-26T22:32:08.214Z,22.70
2022-07-26T22:34:36.085Z,22.60
2022-07-26T22:37:03.880Z,22.60
2022-07-26T22:39:31.656Z,22.60
2022-07-26T22:42:14.728Z,22.40
2022-07-26T22:44:44.277Z,22.40
2022-07-26T22:47:12.315Z,22.30
2022-07-26T22:49:40.262Z,22.30
2022-07-26T22:52:08.124Z,22.20
2022-07-26T22:54:35.970Z,22.20
2022-07-26T22:57:03.827Z,22.20
2022-07-26T22:59:31.689Z,22.20
2022-07-26T23:02:01.085Z,22.20
2022-07-26T23:04:28.892Z,22.10
2022-07-26T23:09:26.592Z,22.10
2022-07-26T23:11:54.478Z,22.00
2022-07-26T23:14:22.287Z,22.00
2022-07-26T23:16:52.677Z,22.00
2022-07-26T23:19:21.959Z,22.00
2022-07-26T23:21:50.131Z,22.00
2022-07-26T23:24:17.945Z,22.00
2022-07-26T23:26:45.734Z,21.90
2022-07-26T23:29:14.238Z,21.90
2022-07-26T23:31:43.080Z,21.80
2022-07-26T23:34:11.138Z,21.80
2022-07-26T23:36:40.409Z,21.80
2022-07-26T23:39:08.330Z,21.60
2022-07-26T23:41:36.408Z,21.60
2022-07-26T23:44:04.507Z,21.60
2022-07-26T23:46:32.425Z,21.60
2022-07-26T23:49:00.663Z,21.70
2022-07-26T23:51:28.492Z,21.70
2022-07-26T23:53:58.197Z,21.70
2022-07-26T23:56:26.109Z,21.70
2022-07-26T23:58:53.911Z,21.70
